DTTX/SFA METAR and TAF weather

Enter ICAO airport designator
Station Type Date Time Source
DTTX METAR 2018/04/26 15:00 UTC NOAA

DTTX 261500Z 06014KT 030V090 9999 SCT030 23/15 Q1005 NOSIG


Station Type Date Time Source
DTTX Decoded METAR 2018/04/26 15:00 UTC NOAA

Sfax El-Maou, Tunisia (DTTX) 34-43N 010-41E 23M
Apr 26, 2018 - 11:00 AM EDT / 2018.04.26 1500 UTC
Wind: from the ENE (060 degrees) at 16 MPH (14 KT) (direction variable):0
Visibility: greater than 7 mile(s):0
Sky conditions: partly cloudy
Temperature: 73 F (23 C)
Dew Point: 59 F (15 C)
Relative Humidity: 60%
Pressure (altimeter): 29.68 in. Hg (1005 hPa)
ob: DTTX 261500Z 06014KT 030V090 9999 SCT030 23/15 Q1005 NOSIG
cycle: 15

Station Type Date Time Source
DTTX TAF 2017/08/22 04:48 UTC NOAA

TAF DTTX 220640Z 2204/2216 36012KT 9999 FEW033


Example: see airport list